Syosyun — JD2406 — position and weather

sailwx.info

Track history (hours):
 
Tides and Currents Weather Stations Pressure Air Temp Water Temp Dewpoint Dewpoint Depression Visibility Wind Speed Wind Dir Waves Ship Positions

Syosyun

Last reported at 2014-Dec-08 03:28 UTC. Time now 2014-Dec-22 05:38 UTC.
Position N 34°05' E 135°02'.
Warning: this ship's position is 14 days out of date.

Length 74 m; draft 4 m.

Type: Cargo ship. MMSI: 431000201.

Date/timePositionNaut miles runAvg speedWind from/ knotsBaromVisibWave heightAir tempDewpointWater temp
2014-Dec-08 03:28N 34°05' E 135°02'1010.8
2014-Dec-08 02:33N 34°15' E 135°03'1010.5
2014-Dec-08 01:34N 34°24' E 135°09'1010.2
2014-Dec-08 00:33N 34°30' E 135°19'4 1.9
2014-Dec-07 22:31N 34°31' E 135°24'1 0.0
2014-Dec-06 23:31N 34°31' E 135°24'1 0.7
2014-Dec-06 22:21N 34°31' E 135°23'1 0.5
2014-Dec-06 20:21N 34°31' E 135°24'0 0.0
2014-Dec-06 19:27N 34°31' E 135°24'0 0.0
2014-Dec-06 18:15N 34°31' E 135°24'0 0.0
2014-Dec-06 16:33N 34°31' E 135°24'0 0.0
2014-Dec-06 15:33N 34°31' E 135°24'0 0.0
2014-Dec-06 11:21N 34°31' E 135°24'0 0.0
2014-Dec-06 10:15N 34°31' E 135°24'0 0.0
2014-Dec-06 09:33N 34°31' E 135°24'9 8.9
2014-Dec-06 08:33N 34°34' E 135°14'1312.8
2014-Dec-06 07:34N 34°37' E 134°59'11 0.5
2014-Dec-05 10:26N 34°41' E 134°47'910.3
2014-Dec-05 09:33N 34°37' E 134°57'1110.7
2014-Dec-05 08:33N 34°37' E 135°10'10 9.9
2014-Dec-05 07:33N 34°39' E 135°22'4 1.1
2014-Dec-05 04:11N 34°37' E 135°26'0 0.0
2014-Dec-05 03:29N 34°37' E 135°26'0 0.0
2014-Dec-04 01:22N 34°37' E 135°26'1 0.4
2014-Dec-03 22:33N 34°37' E 135°25'3 2.9
2014-Dec-03 21:27N 34°36' E 135°21'0 0.1
2014-Dec-03 20:33N 34°36' E 135°21'0 0.0
2014-Dec-03 19:33N 34°36' E 135°21'0 0.0
2014-Dec-03 18:33N 34°36' E 135°21'0 0.0
2014-Dec-03 17:33N 34°36' E 135°21'0 0.0
2014-Dec-03 16:33N 34°36' E 135°21'0 0.0
2014-Dec-03 15:33N 34°36' E 135°21'0 0.0
2014-Dec-03 14:33N 34°36' E 135°21'1110.9
2014-Dec-03 13:33N 34°35' E 135°08'1413.0
2014-Dec-03 12:27N 34°38' E 134°51'  
Track history (hours):
 
Tides and Currents Weather Stations Pressure Air Temp Water Temp Dewpoint Dewpoint Depression Visibility Wind Speed Wind Dir Waves Ship Positions

Syosyun

Last reported at 2014-Dec-08 03:28 UTC. Time now 2014-Dec-22 05:38 UTC.
Position N 34°05' E 135°02'.
Warning: this ship's position is 14 days out of date.

Length 74 m; draft 4 m.

Type: Cargo ship. MMSI: 431000201.

Date/timePositionNaut miles runAvg speedWind from/ knotsBaromVisibWave heightAir tempDewpointWater temp
2014-Dec-08 03:28N 34°05' E 135°02'1010.8
2014-Dec-08 02:33N 34°15' E 135°03'1010.5
2014-Dec-08 01:34N 34°24' E 135°09'1010.2
2014-Dec-08 00:33N 34°30' E 135°19'4 1.9
2014-Dec-07 22:31N 34°31' E 135°24'1 0.0
2014-Dec-06 23:31N 34°31' E 135°24'1 0.7
2014-Dec-06 22:21N 34°31' E 135°23'1 0.5
2014-Dec-06 20:21N 34°31' E 135°24'0 0.0
2014-Dec-06 19:27N 34°31' E 135°24'0 0.0
2014-Dec-06 18:15N 34°31' E 135°24'0 0.0
2014-Dec-06 16:33N 34°31' E 135°24'0 0.0
2014-Dec-06 15:33N 34°31' E 135°24'0 0.0
2014-Dec-06 11:21N 34°31' E 135°24'0 0.0
2014-Dec-06 10:15N 34°31' E 135°24'0 0.0
2014-Dec-06 09:33N 34°31' E 135°24'9 8.9
2014-Dec-06 08:33N 34°34' E 135°14'1312.8
2014-Dec-06 07:34N 34°37' E 134°59'11 0.5
2014-Dec-05 10:26N 34°41' E 134°47'910.3
2014-Dec-05 09:33N 34°37' E 134°57'1110.7
2014-Dec-05 08:33N 34°37' E 135°10'10 9.9
2014-Dec-05 07:33N 34°39' E 135°22'4 1.1
2014-Dec-05 04:11N 34°37' E 135°26'0 0.0
2014-Dec-05 03:29N 34°37' E 135°26'0 0.0
2014-Dec-04 01:22N 34°37' E 135°26'1 0.4
2014-Dec-03 22:33N 34°37' E 135°25'3 2.9
2014-Dec-03 21:27N 34°36' E 135°21'0 0.1
2014-Dec-03 20:33N 34°36' E 135°21'0 0.0
2014-Dec-03 19:33N 34°36' E 135°21'0 0.0
2014-Dec-03 18:33N 34°36' E 135°21'0 0.0
2014-Dec-03 17:33N 34°36' E 135°21'0 0.0
2014-Dec-03 16:33N 34°36' E 135°21'0 0.0
2014-Dec-03 15:33N 34°36' E 135°21'0 0.0
2014-Dec-03 14:33N 34°36' E 135°21'1110.9
2014-Dec-03 13:33N 34°35' E 135°08'1413.0
2014-Dec-03 12:27N 34°38' E 134°51'  

Dump ship's entire track history